createdAt,value
2022-10-10T00:01:13.351Z,12.77
2022-10-10T00:03:40.652Z,12.60
2022-10-10T00:06:07.956Z,11.40
2022-10-10T00:08:35.293Z,11.53
2022-10-10T00:11:05.828Z,10.77
2022-10-10T00:13:33.006Z,11.73
2022-10-10T00:15:59.923Z,11.37
2022-10-10T00:18:26.865Z,11.40
2022-10-10T00:20:54.798Z,11.30
2022-10-10T00:23:24.097Z,9.77
2022-10-10T00:25:51.912Z,12.20
2022-10-10T00:28:19.076Z,10.77
2022-10-10T00:30:48.951Z,11.53
2022-10-10T00:33:15.819Z,10.73
2022-10-10T00:35:43.132Z,10.90
2022-10-10T00:38:10.903Z,10.90
2022-10-10T00:40:49.519Z,10.23
2022-10-10T00:43:18.590Z,10.80
2022-10-10T00:45:47.196Z,11.17
2022-10-10T00:48:20.968Z,10.77
2022-10-10T00:51:07.952Z,10.20
2022-10-10T00:53:55.661Z,11.23
2022-10-10T00:56:26.832Z,10.90
2022-10-10T00:58:56.528Z,11.30
2022-10-10T01:01:23.615Z,10.53
2022-10-10T01:03:50.762Z,11.13
2022-10-10T01:06:17.762Z,11.80
2022-10-10T01:08:44.759Z,12.33
2022-10-10T01:11:29.934Z,12.27
2022-10-10T01:14:27.739Z,12.37
2022-10-10T01:17:10.201Z,11.47
2022-10-10T01:19:58.981Z,11.97
2022-10-10T01:22:46.353Z,13.03
2022-10-10T01:25:16.043Z,11.90
2022-10-10T01:27:52.989Z,11.93
2022-10-10T01:30:24.322Z,12.60
2022-10-10T01:33:08.824Z,11.23
2022-10-10T01:35:59.089Z,12.60
2022-10-10T01:38:30.599Z,11.53
2022-10-10T01:41:06.052Z,11.87
2022-10-10T01:43:34.065Z,12.97
2022-10-10T01:46:09.687Z,13.07
2022-10-10T01:48:37.064Z,13.80
2022-10-10T01:51:25.265Z,12.20
2022-10-10T01:54:05.156Z,12.73
2022-10-10T01:57:02.965Z,12.50
2022-10-10T01:59:38.311Z,11.77
2022-10-10T02:02:25.300Z,12.03
2022-10-10T02:05:24.430Z,12.33
2022-10-10T02:07:58.551Z,11.73
2022-10-10T02:10:34.092Z,11.73
2022-10-10T02:13:02.970Z,12.43
2022-10-10T02:15:51.985Z,11.53
2022-10-10T02:18:22.509Z,11.67
2022-10-10T02:20:52.958Z,12.07
2022-10-10T02:23:21.778Z,11.93
2022-10-10T02:25:53.339Z,12.03
2022-10-10T02:28:50.768Z,11.27
2022-10-10T02:31:40.323Z,12.30
2022-10-10T02:34:17.721Z,10.73
2022-10-10T02:36:49.644Z,12.37
2022-10-10T02:39:21.151Z,11.83
2022-10-10T02:41:50.862Z,11.77
2022-10-10T02:44:20.238Z,11.83
2022-10-10T02:46:47.055Z,11.47
2022-10-10T02:49:14.888Z,11.73
2022-10-10T02:51:41.827Z,11.80
2022-10-10T02:54:09.213Z,11.77
2022-10-10T02:56:36.229Z,10.07
2022-10-10T02:59:03.233Z,9.13
2022-10-10T03:01:33.146Z,11.43
2022-10-10T03:04:01.958Z,11.13
2022-10-10T03:06:29.021Z,10.60
2022-10-10T03:08:56.017Z,10.13
2022-10-10T03:11:23.032Z,10.77
2022-10-10T03:13:49.862Z,11.97
2022-10-10T03:16:16.787Z,10.80
2022-10-10T03:18:43.684Z,11.47
2022-10-10T03:21:10.777Z,11.23
2022-10-10T03:23:38.965Z,11.17
2022-10-10T03:26:06.570Z,11.13
2022-10-10T03:28:33.680Z,10.47
2022-10-10T03:31:00.700Z,10.90
2022-10-10T03:33:27.539Z,11.40
2022-10-10T03:35:54.611Z,10.83
2022-10-10T03:38:21.456Z,11.63
2022-10-10T03:40:48.651Z,10.63
2022-10-10T03:43:15.759Z,11.17
2022-10-10T03:45:44.672Z,10.20
2022-10-10T03:48:12.335Z,10.87
2022-10-10T03:50:39.351Z,9.90
2022-10-10T03:53:06.858Z,10.87
2022-10-10T03:55:34.009Z,10.67
2022-10-10T03:58:00.822Z,11.00
2022-10-10T04:00:30.057Z,10.83
2022-10-10T04:02:57.079Z,10.63
2022-10-10T04:05:23.933Z,11.50
2022-10-10T04:07:50.825Z,11.53
2022-10-10T04:10:20.713Z,10.93
2022-10-10T04:12:47.774Z,10.93
2022-10-10T04:15:14.753Z,11.00
2022-10-10T04:17:41.637Z,11.10
2022-10-10T04:20:08.952Z,11.10
2022-10-10T04:22:35.819Z,11.40
2022-10-10T04:25:02.678Z,10.63
2022-10-10T04:27:31.565Z,10.37
2022-10-10T04:29:58.578Z,11.53
2022-10-10T04:32:25.530Z,11.47
2022-10-10T04:34:52.453Z,10.57
2022-10-10T04:37:19.267Z,11.63
2022-10-10T04:39:46.098Z,11.37
2022-10-10T04:42:13.046Z,10.60
2022-10-10T04:44:39.927Z,10.97
2022-10-10T04:47:07.280Z,11.77
2022-10-10T04:49:34.187Z,11.60
2022-10-10T04:52:01.133Z,11.53
2022-10-10T04:54:28.181Z,11.70
2022-10-10T04:56:55.166Z,12.93
2022-10-10T04:59:22.171Z,12.13
2022-10-10T05:01:52.263Z,11.60
2022-10-10T05:04:19.018Z,11.50
2022-10-10T05:06:45.835Z,11.23
2022-10-10T05:09:12.941Z,11.30
2022-10-10T05:11:39.766Z,11.07
2022-10-10T05:14:06.726Z,10.83
2022-10-10T05:16:36.526Z,11.20
2022-10-10T05:19:03.712Z,11.07
2022-10-10T05:21:31.738Z,10.53
2022-10-10T05:23:58.637Z,11.03
2022-10-10T05:26:25.450Z,10.77
2022-10-10T05:28:52.425Z,12.03
2022-10-10T05:31:19.239Z,11.40
2022-10-10T05:33:46.119Z,9.93
2022-10-10T05:36:14.161Z,11.23
2022-10-10T05:38:41.895Z,10.70
2022-10-10T05:41:09.175Z,10.63
2022-10-10T05:43:36.308Z,10.77
2022-10-10T05:46:03.869Z,12.63
2022-10-10T05:48:31.123Z,10.93
2022-10-10T05:50:59.638Z,11.00
2022-10-10T05:53:28.729Z,10.17
2022-10-10T05:55:56.235Z,11.53
2022-10-10T05:58:23.233Z,11.03
2022-10-10T06:00:50.170Z,11.20
2022-10-10T06:03:17.612Z,10.30
2022-10-10T06:05:46.111Z,11.13
2022-10-10T06:08:12.989Z,11.17
2022-10-10T06:10:42.853Z,11.10
2022-10-10T06:13:11.032Z,10.67
2022-10-10T06:15:37.954Z,10.13
2022-10-10T06:18:05.789Z,11.63
2022-10-10T06:20:38.557Z,10.90
2022-10-10T06:23:07.013Z,10.17
2022-10-10T06:25:40.602Z,10.50
2022-10-10T06:28:08.587Z,10.37
2022-10-10T06:30:40.503Z,10.33
2022-10-10T06:33:07.717Z,10.93
2022-10-10T06:35:40.721Z,10.60
2022-10-10T06:38:07.704Z,10.53
2022-10-10T06:40:34.485Z,10.17
2022-10-10T06:43:01.802Z,10.63
2022-10-10T06:45:28.646Z,10.70
2022-10-10T06:47:55.632Z,10.13
2022-10-10T06:50:22.554Z,10.10
2022-10-10T06:52:49.592Z,10.17
2022-10-10T06:55:16.638Z,9.57
2022-10-10T06:57:43.395Z,9.90
2022-10-10T07:00:10.654Z,9.60
2022-10-10T07:02:40.702Z,9.73
2022-10-10T07:05:12.000Z,9.50
2022-10-10T07:07:39.809Z,9.87
2022-10-10T07:10:08.038Z,9.00
2022-10-10T07:12:42.119Z,9.67
2022-10-10T07:15:12.783Z,9.93
2022-10-10T07:17:40.054Z,10.07
2022-10-10T07:20:07.173Z,10.03
2022-10-10T07:22:34.130Z,9.97
2022-10-10T07:25:00.900Z,9.33
2022-10-10T07:27:27.734Z,9.40
2022-10-10T07:29:54.812Z,9.87
2022-10-10T07:32:21.664Z,10.13
2022-10-10T07:34:48.419Z,9.43
2022-10-10T07:37:15.160Z,10.83
2022-10-10T07:39:42.485Z,10.10
2022-10-10T07:42:09.251Z,9.87
2022-10-10T07:44:35.977Z,10.40
2022-10-10T07:47:02.730Z,9.30
2022-10-10T07:49:29.479Z,10.20
2022-10-10T07:51:59.066Z,9.60
2022-10-10T07:54:29.088Z,9.77
2022-10-10T07:56:55.959Z,9.07
2022-10-10T07:59:23.987Z,8.73
2022-10-10T08:01:51.511Z,7.87
2022-10-10T08:04:18.767Z,9.30
2022-10-10T08:06:45.608Z,8.13
2022-10-10T08:09:12.769Z,8.60
2022-10-10T08:11:39.747Z,8.30
2022-10-10T08:14:06.667Z,8.03
2022-10-10T08:16:33.533Z,8.23
2022-10-10T08:19:01.299Z,7.27
2022-10-10T08:21:28.185Z,7.40
2022-10-10T08:23:55.868Z,7.20
2022-10-10T08:26:22.701Z,7.57
2022-10-10T08:28:49.647Z,6.87
2022-10-10T08:31:19.615Z,7.17
2022-10-10T08:33:48.212Z,8.47
2022-10-10T08:36:20.851Z,7.30
2022-10-10T08:38:48.323Z,6.60
2022-10-10T08:41:31.144Z,7.13
2022-10-10T08:44:05.772Z,6.50
2022-10-10T08:47:03.326Z,7.87
2022-10-10T08:49:34.292Z,6.60
2022-10-10T08:52:23.013Z,6.70
2022-10-10T08:54:57.493Z,6.73
2022-10-10T08:57:29.566Z,7.37
2022-10-10T09:00:04.523Z,7.30
2022-10-10T09:02:59.012Z,6.73
2022-10-10T09:05:40.913Z,6.00
2022-10-10T09:08:12.883Z,7.03
2022-10-10T09:11:02.766Z,6.20
2022-10-10T09:13:35.091Z,6.70
2022-10-10T09:16:26.795Z,6.50
2022-10-10T09:19:04.565Z,6.67
2022-10-10T09:21:37.697Z,6.20
2022-10-10T09:24:12.602Z,5.80
2022-10-10T09:26:49.478Z,6.47
2022-10-10T09:29:49.322Z,6.00
2022-10-10T09:32:23.302Z,6.07
2022-10-10T09:35:16.687Z,6.40
2022-10-10T09:37:47.963Z,6.40
2022-10-10T09:40:24.292Z,5.83
2022-10-10T09:42:54.010Z,5.47
2022-10-10T09:45:25.238Z,5.70
2022-10-10T09:48:04.615Z,5.20
2022-10-10T09:50:31.767Z,5.80
2022-10-10T09:52:59.523Z,5.60
2022-10-10T09:55:38.049Z,5.90
2022-10-10T09:58:31.579Z,5.70
2022-10-10T10:01:20.867Z,5.07
2022-10-10T10:04:27.165Z,5.20
2022-10-10T10:07:17.319Z,5.47
2022-10-10T10:09:49.175Z,5.35
2022-10-10T10:12:22.932Z,5.72
2022-10-10T10:14:50.668Z,5.82
2022-10-10T10:17:22.342Z,5.55
2022-10-10T10:19:49.316Z,5.35
2022-10-10T10:22:31.468Z,5.63
2022-10-10T10:24:59.562Z,5.40
2022-10-10T10:27:29.270Z,4.97
2022-10-10T10:29:58.473Z,5.97
2022-10-10T10:32:50.458Z,5.10
2022-10-10T10:35:41.285Z,5.38
2022-10-10T10:38:15.121Z,5.38
2022-10-10T10:40:50.920Z,4.75
2022-10-10T10:43:30.795Z,4.75
2022-10-10T10:46:09.184Z,5.38
2022-10-10T10:48:35.960Z,4.78
2022-10-10T10:51:28.935Z,5.05
2022-10-10T10:54:07.370Z,5.90
2022-10-10T10:56:39.841Z,5.30
2022-10-10T11:02:43.505Z,5.65
2022-10-10T11:05:45.113Z,5.30
2022-10-10T11:08:39.366Z,5.45
2022-10-10T11:11:20.582Z,5.07
2022-10-10T11:14:04.458Z,5.40
2022-10-10T11:16:48.311Z,5.93
2022-10-10T11:19:23.906Z,6.40
2022-10-10T11:21:56.244Z,6.60
2022-10-10T11:24:44.925Z,5.10
2022-10-10T11:27:20.870Z,6.03
2022-10-10T11:30:00.704Z,6.40
2022-10-10T11:32:33.781Z,6.07
2022-10-10T11:35:07.682Z,6.78
2022-10-10T11:37:46.243Z,6.32
2022-10-10T11:40:52.986Z,6.70
2022-10-10T11:43:39.253Z,6.68
2022-10-10T11:46:19.134Z,6.45
2022-10-10T11:48:56.804Z,6.50
2022-10-10T11:51:41.272Z,6.65
2022-10-10T11:54:29.808Z,7.35
2022-10-10T11:57:03.112Z,6.90
2022-10-10T11:59:53.420Z,7.03
2022-10-10T12:02:40.391Z,7.13
2022-10-10T12:05:19.595Z,7.25
2022-10-10T12:08:00.027Z,7.35
2022-10-10T12:10:31.171Z,6.30
2022-10-10T12:13:08.522Z,7.32
2022-10-10T12:15:41.962Z,6.72
2022-10-10T12:18:28.164Z,5.85
2022-10-10T12:21:13.535Z,7.10
2022-10-10T12:23:42.876Z,7.10
2022-10-10T12:26:19.485Z,7.80
2022-10-10T12:29:10.162Z,7.38
2022-10-10T12:31:37.936Z,8.07
2022-10-10T12:34:15.164Z,7.80
2022-10-10T12:36:54.030Z,7.25
2022-10-10T12:39:20.758Z,7.35
2022-10-10T12:41:50.609Z,8.00
2022-10-10T12:44:44.654Z,8.27
2022-10-10T12:47:14.518Z,7.90
2022-10-10T12:49:58.861Z,7.82
2022-10-10T12:52:37.872Z,8.07
2022-10-10T12:55:27.129Z,8.80
2022-10-10T12:58:02.147Z,8.13
2022-10-10T13:00:39.565Z,8.75
2022-10-10T13:03:17.362Z,8.82
2022-10-10T13:05:44.857Z,9.40
2022-10-10T13:08:18.710Z,9.52
2022-10-10T13:11:11.959Z,9.85
2022-10-10T13:13:40.436Z,10.25
2022-10-10T13:16:15.176Z,9.63
2022-10-10T13:18:50.918Z,9.82
2022-10-10T13:21:27.356Z,9.82
2022-10-10T13:24:03.828Z,9.98
2022-10-10T13:26:38.693Z,10.40
2022-10-10T13:29:31.709Z,10.60
2022-10-10T13:32:13.404Z,10.82
2022-10-10T13:34:47.322Z,11.10
2022-10-10T13:37:16.369Z,12.13
2022-10-10T13:39:43.968Z,12.38
2022-10-10T13:42:37.798Z,12.20
2022-10-10T13:45:27.865Z,11.93
2022-10-10T13:47:57.425Z,12.73
2022-10-10T13:50:28.800Z,13.37
2022-10-10T13:53:28.366Z,12.70
2022-10-10T13:56:16.047Z,12.77
2022-10-10T13:58:57.069Z,12.90
2022-10-10T14:01:43.395Z,12.57
2022-10-10T14:04:13.178Z,12.70
2022-10-10T14:06:42.138Z,13.27
2022-10-10T14:09:28.370Z,11.90
2022-10-10T14:11:56.627Z,12.57
2022-10-10T14:14:41.004Z,13.43
2022-10-10T14:17:11.230Z,12.30
2022-10-10T14:19:38.403Z,14.23
2022-10-10T14:22:05.269Z,9.33
2022-10-10T14:24:32.065Z,3.27
2022-10-10T14:27:05.580Z,2.03
2022-10-10T14:29:32.435Z,2.00
2022-10-10T14:31:59.208Z,1.63
2022-10-10T14:34:25.955Z,1.20
2022-10-10T14:36:52.780Z,1.27
2022-10-10T14:39:19.935Z,1.83
2022-10-10T14:41:46.680Z,1.07
2022-10-10T14:44:13.942Z,0.80
2022-10-10T14:46:41.614Z,1.50
2022-10-10T14:49:17.409Z,0.93
2022-10-10T14:51:44.173Z,1.20
2022-10-10T14:54:14.097Z,1.23
2022-10-10T14:57:08.598Z,1.20
2022-10-10T14:59:48.732Z,1.27
2022-10-10T15:02:21.694Z,1.30
2022-10-10T15:04:49.505Z,1.50
2022-10-10T15:07:16.761Z,1.30
2022-10-10T15:12:37.897Z,1.87
2022-10-10T15:15:06.186Z,1.40
2022-10-10T15:17:34.510Z,2.60
2022-10-10T15:20:02.511Z,1.80
2022-10-10T15:22:30.435Z,1.53
2022-10-10T15:24:57.219Z,1.87
2022-10-10T15:27:24.275Z,2.00
2022-10-10T15:29:51.137Z,2.37
2022-10-10T15:32:17.971Z,1.83
2022-10-10T15:34:47.255Z,2.17
2022-10-10T15:37:14.009Z,1.67
2022-10-10T15:39:44.439Z,1.63
2022-10-10T15:42:17.244Z,1.53
2022-10-10T15:44:46.088Z,2.50
2022-10-10T15:47:15.955Z,2.33
2022-10-10T15:49:42.754Z,2.10
2022-10-10T15:52:09.790Z,1.70
2022-10-10T15:54:36.708Z,2.77
2022-10-10T15:57:03.684Z,1.80
2022-10-10T15:59:30.895Z,2.10
2022-10-10T16:01:57.649Z,2.30
2022-10-10T16:04:25.349Z,2.13
2022-10-10T16:06:59.543Z,2.10
2022-10-10T16:09:35.579Z,2.33
2022-10-10T16:12:02.459Z,3.90
2022-10-10T16:14:29.492Z,2.60
2022-10-10T16:17:00.360Z,2.20
2022-10-10T16:19:27.330Z,2.50
2022-10-10T16:21:54.155Z,4.00
2022-10-10T16:24:23.641Z,4.17
2022-10-10T16:26:53.484Z,3.97
2022-10-10T16:29:20.921Z,3.83
2022-10-10T16:31:47.761Z,2.70
2022-10-10T16:34:17.405Z,3.40
2022-10-10T16:36:44.727Z,2.50
2022-10-10T16:39:15.141Z,2.47
2022-10-10T16:41:49.544Z,2.80
2022-10-10T16:44:18.090Z,2.97
2022-10-10T16:46:45.101Z,3.90
2022-10-10T16:49:20.483Z,4.10
2022-10-10T16:51:47.333Z,19.27
2022-10-10T16:54:14.218Z,20.93
2022-10-10T16:56:44.230Z,18.27
2022-10-10T16:59:12.257Z,9.57
2022-10-10T17:01:39.381Z,9.77
2022-10-10T17:04:07.360Z,9.03
2022-10-10T17:06:37.602Z,8.10
2022-10-10T17:09:08.423Z,8.70
2022-10-10T17:11:35.800Z,8.47
2022-10-10T17:14:02.772Z,6.60
2022-10-10T17:19:28.560Z,4.50
2022-10-10T17:21:55.601Z,5.33
2022-10-10T17:24:22.499Z,5.03
2022-10-10T17:26:49.655Z,4.33
2022-10-10T17:29:16.930Z,3.77
2022-10-10T17:31:43.961Z,3.93
2022-10-10T17:34:14.061Z,3.37
2022-10-10T17:36:43.395Z,4.60
2022-10-10T17:39:15.059Z,3.50
2022-10-10T17:41:43.285Z,3.43
2022-10-10T17:44:14.490Z,2.93
2022-10-10T17:46:44.888Z,8.83
2022-10-10T17:49:15.695Z,6.80
2022-10-10T17:51:43.009Z,6.40
2022-10-10T17:54:11.249Z,3.63
2022-10-10T17:56:40.780Z,4.00
2022-10-10T17:59:13.697Z,4.57
2022-10-10T18:01:41.296Z,4.20
2022-10-10T18:04:14.271Z,3.97
2022-10-10T18:06:47.294Z,4.53
2022-10-10T18:09:14.225Z,4.60
2022-10-10T18:11:41.280Z,4.73
2022-10-10T18:14:08.440Z,5.30
2022-10-10T18:16:35.552Z,5.53
2022-10-10T18:19:09.035Z,4.93
2022-10-10T18:21:38.458Z,4.60
2022-10-10T18:24:07.890Z,5.23
2022-10-10T18:26:36.212Z,3.77
2022-10-10T18:29:03.624Z,4.40
2022-10-10T18:31:45.435Z,4.20
2022-10-10T18:34:12.541Z,4.77
2022-10-10T18:36:44.071Z,5.07
2022-10-10T18:39:20.914Z,4.97
2022-10-10T18:41:48.014Z,6.13
2022-10-10T18:44:21.938Z,6.77
2022-10-10T18:46:49.642Z,6.97
2022-10-10T18:49:16.701Z,9.23
2022-10-10T18:51:47.592Z,6.60
2022-10-10T18:54:18.787Z,6.77
2022-10-10T18:56:47.463Z,7.67
2022-10-10T18:59:21.709Z,6.30
2022-10-10T19:01:51.785Z,6.50
2022-10-10T19:04:22.699Z,6.33
2022-10-10T19:06:57.155Z,6.87
2022-10-10T19:09:27.188Z,5.70
2022-10-10T19:11:55.369Z,5.03
2022-10-10T19:14:27.018Z,4.50
2022-10-10T19:16:58.290Z,4.03
2022-10-10T19:19:25.236Z,4.90
2022-10-10T19:21:55.426Z,3.70
2022-10-10T19:24:26.380Z,4.17
2022-10-10T19:26:56.962Z,5.07
2022-10-10T19:29:26.983Z,4.63
2022-10-10T19:31:56.325Z,4.67
2022-10-10T19:34:28.196Z,4.03
2022-10-10T19:36:58.270Z,5.43
2022-10-10T19:39:25.383Z,3.63
2022-10-10T19:41:58.305Z,4.13
2022-10-10T19:44:27.675Z,3.63
2022-10-10T19:46:55.075Z,4.20
2022-10-10T19:49:22.125Z,4.30
2022-10-10T19:51:52.131Z,4.93
2022-10-10T19:54:19.160Z,5.27
2022-10-10T19:56:47.656Z,4.53
2022-10-10T19:59:18.820Z,3.93
2022-10-10T20:01:52.938Z,4.30
2022-10-10T20:04:25.789Z,3.70
2022-10-10T20:06:52.970Z,5.57
2022-10-10T20:09:20.110Z,5.17
2022-10-10T20:11:48.295Z,3.87
2022-10-10T20:14:19.255Z,3.80
2022-10-10T20:16:52.644Z,4.50
2022-10-10T20:19:19.595Z,4.20
2022-10-10T20:21:50.274Z,4.13
2022-10-10T20:24:17.482Z,6.27
2022-10-10T20:26:54.819Z,5.67
2022-10-10T20:29:28.182Z,5.90
2022-10-10T20:31:55.284Z,3.93
2022-10-10T20:34:22.688Z,4.10
2022-10-10T20:36:54.264Z,4.40
2022-10-10T20:39:25.168Z,3.50
2022-10-10T20:41:55.840Z,3.97
2022-10-10T20:44:22.933Z,3.87
2022-10-10T20:46:50.343Z,3.30
2022-10-10T20:49:23.102Z,3.83
2022-10-10T20:51:51.955Z,3.60
2022-10-10T20:54:22.762Z,4.03
2022-10-10T20:56:54.011Z,5.30
2022-10-10T20:59:26.227Z,6.63
2022-10-10T21:01:53.754Z,6.50
2022-10-10T21:04:26.484Z,6.30
2022-10-10T21:06:55.858Z,5.83
2022-10-10T21:09:22.937Z,5.03
2022-10-10T21:11:51.707Z,4.50
2022-10-10T21:14:22.335Z,4.33
2022-10-10T21:16:51.118Z,3.70
2022-10-10T21:19:18.554Z,3.43
2022-10-10T21:21:50.236Z,4.27
2022-10-10T21:24:20.044Z,3.50
2022-10-10T21:26:53.378Z,4.40
2022-10-10T21:29:20.391Z,4.73
2022-10-10T21:31:51.024Z,8.57
2022-10-10T21:34:21.365Z,12.93
2022-10-10T21:36:48.647Z,11.33
2022-10-10T21:39:15.887Z,11.00
2022-10-10T21:41:46.047Z,10.20
2022-10-10T21:44:13.201Z,7.70
2022-10-10T21:46:42.652Z,8.23
2022-10-10T21:49:12.221Z,8.43
2022-10-10T21:51:42.161Z,7.10
2022-10-10T21:54:10.216Z,6.10
2022-10-10T21:56:38.053Z,5.27
2022-10-10T21:59:05.984Z,4.47
2022-10-10T22:01:33.337Z,4.30
2022-10-10T22:04:01.918Z,4.47
2022-10-10T22:06:28.712Z,4.93
2022-10-10T22:08:58.324Z,5.43
2022-10-10T22:11:27.905Z,4.83
2022-10-10T22:13:55.015Z,5.07
2022-10-10T22:16:22.328Z,4.67
2022-10-10T22:18:54.460Z,5.93
2022-10-10T22:21:21.824Z,5.03
2022-10-10T22:23:49.240Z,4.80
2022-10-10T22:26:17.123Z,5.23
2022-10-10T22:28:45.143Z,5.73
2022-10-10T22:31:14.787Z,5.13
2022-10-10T22:33:42.371Z,5.40
2022-10-10T22:36:09.951Z,4.93
2022-10-10T22:38:39.894Z,4.77
2022-10-10T22:41:07.252Z,4.93
2022-10-10T22:43:34.341Z,5.10
2022-10-10T22:46:01.710Z,4.40
2022-10-10T22:48:29.118Z,4.60
2022-10-10T22:51:11.637Z,4.23
2022-10-10T22:53:43.283Z,4.57
2022-10-10T22:56:13.759Z,4.43
2022-10-10T22:58:40.678Z,5.73
2022-10-10T23:01:14.616Z,4.60
2022-10-10T23:03:43.089Z,4.73
2022-10-10T23:06:10.245Z,4.27
2022-10-10T23:08:37.605Z,4.80
2022-10-10T23:11:05.231Z,5.87
2022-10-10T23:13:33.490Z,6.07
2022-10-10T23:16:03.137Z,5.90
2022-10-10T23:18:36.649Z,4.47
2022-10-10T23:21:03.969Z,4.97
2022-10-10T23:23:33.050Z,5.30
2022-10-10T23:26:08.190Z,6.00
2022-10-10T23:28:36.152Z,6.13
2022-10-10T23:31:07.645Z,5.80
2022-10-10T23:33:37.453Z,5.80
2022-10-10T23:36:11.738Z,6.27
2022-10-10T23:38:38.676Z,6.23
2022-10-10T23:41:13.974Z,6.93
2022-10-10T23:43:40.740Z,6.47
2022-10-10T23:46:08.425Z,6.50
2022-10-10T23:48:35.738Z,8.20
2022-10-10T23:51:02.939Z,6.63
2022-10-10T23:53:29.743Z,6.90
2022-10-10T23:55:56.637Z,6.17
2022-10-10T23:58:23.598Z,7.40
